Hermann - S — V2EI6 — position and weather

sailwx.info

Track history (hours):
 
Tides and Currents Weather Stations Pressure Air Temp Water Temp Dewpoint Dewpoint Depression Visibility Wind Speed Wind Dir Waves Ship Positions

Hermann - S

Last reported at 2017-Feb-18 02:32 UTC. Time now 2017-Feb-25 07:35 UTC.
Position N 35°58' W 005°48'.

Length 190 m; draft 12.6 m.

Type: Ship. MMSI: 305441000.

Date/timePositionNaut miles runAvg speedWind from/ knotsBaromVisibWave heightAir tempDewpointWater temp
2017-Feb-18 02:32N 35°58' W 005°48'1111.3
2017-Feb-18 01:33N 35°58' W 005°34'1010.3
2017-Feb-18 00:33N 36°00' W 005°22'1212.1
2017-Feb-17 23:33N 36°02' W 005°07'  
2017-Feb-14 14:04N 36°24' E 013°39'610.9
2017-Feb-14 13:33N 36°21' E 013°45'1111.2
2017-Feb-14 12:33N 36°16' E 013°57'1111.6
2017-Feb-14 11:33N 36°11' E 014°10'1111.3
2017-Feb-14 10:33N 36°06' E 014°22'1211.4
2017-Feb-14 09:33N 36°00' E 014°35'10 9.8
2017-Feb-14 08:31N 35°53' E 014°43'1 1.2
2017-Feb-14 07:18N 35°52' E 014°44'0 0.0
2017-Feb-14 06:33N 35°52' E 014°44'0 0.0
2017-Feb-14 05:21N 35°52' E 014°44'0 0.0
2017-Feb-14 04:18N 35°52' E 014°44'0 0.0
2017-Feb-14 03:12N 35°52' E 014°44'0 0.0
2017-Feb-14 02:33N 35°52' E 014°44'0 0.0
2017-Feb-14 01:33N 35°52' E 014°44'0 0.0
2017-Feb-14 00:27N 35°52' E 014°44'0 0.0
2017-Feb-13 23:33N 35°52' E 014°44'0 0.0
2017-Feb-13 22:33N 35°52' E 014°44'0 0.0
2017-Feb-13 21:33N 35°52' E 014°44'5 5.5
2017-Feb-13 20:33N 35°56' E 014°41'3 3.1
2017-Feb-13 19:33N 35°56' E 014°37'6 5.9
2017-Feb-13 18:33N 35°57' E 014°44'  
Track history (hours):
 
Tides and Currents Weather Stations Pressure Air Temp Water Temp Dewpoint Dewpoint Depression Visibility Wind Speed Wind Dir Waves Ship Positions

Hermann - S

Last reported at 2017-Feb-18 02:32 UTC. Time now 2017-Feb-25 07:35 UTC.
Position N 35°58' W 005°48'.

Length 190 m; draft 12.6 m.

Type: Ship. MMSI: 305441000.

Date/timePositionNaut miles runAvg speedWind from/ knotsBaromVisibWave heightAir tempDewpointWater temp
2017-Feb-18 02:32N 35°58' W 005°48'1111.3
2017-Feb-18 01:33N 35°58' W 005°34'1010.3
2017-Feb-18 00:33N 36°00' W 005°22'1212.1
2017-Feb-17 23:33N 36°02' W 005°07'  
2017-Feb-14 14:04N 36°24' E 013°39'610.9
2017-Feb-14 13:33N 36°21' E 013°45'1111.2
2017-Feb-14 12:33N 36°16' E 013°57'1111.6
2017-Feb-14 11:33N 36°11' E 014°10'1111.3
2017-Feb-14 10:33N 36°06' E 014°22'1211.4
2017-Feb-14 09:33N 36°00' E 014°35'10 9.8
2017-Feb-14 08:31N 35°53' E 014°43'1 1.2
2017-Feb-14 07:18N 35°52' E 014°44'0 0.0
2017-Feb-14 06:33N 35°52' E 014°44'0 0.0
2017-Feb-14 05:21N 35°52' E 014°44'0 0.0
2017-Feb-14 04:18N 35°52' E 014°44'0 0.0
2017-Feb-14 03:12N 35°52' E 014°44'0 0.0
2017-Feb-14 02:33N 35°52' E 014°44'0 0.0
2017-Feb-14 01:33N 35°52' E 014°44'0 0.0
2017-Feb-14 00:27N 35°52' E 014°44'0 0.0
2017-Feb-13 23:33N 35°52' E 014°44'0 0.0
2017-Feb-13 22:33N 35°52' E 014°44'0 0.0
2017-Feb-13 21:33N 35°52' E 014°44'5 5.5
2017-Feb-13 20:33N 35°56' E 014°41'3 3.1
2017-Feb-13 19:33N 35°56' E 014°37'6 5.9
2017-Feb-13 18:33N 35°57' E 014°44'  

Dump ship's entire track history